sensor_id;sensor_type;location;lat;lon;timestamp;P1;durP1;ratioP1;P2;durP2;ratioP2
49834;SDS011;35729;52.090;13.162;2023-08-08T00:00:15;6.75;;;2.20;;
49834;SDS011;35729;52.090;13.162;2023-08-08T00:02:44;5.28;;;2.03;;
49834;SDS011;35729;52.090;13.162;2023-08-08T00:05:15;5.85;;;2.15;;
49834;SDS011;35729;52.090;13.162;2023-08-08T00:07:43;4.25;;;1.83;;
49834;SDS011;35729;52.090;13.162;2023-08-08T00:10:12;6.22;;;2.15;;
49834;SDS011;35729;52.090;13.162;2023-08-08T00:12:40;4.15;;;1.65;;
49834;SDS011;35729;52.090;13.162;2023-08-08T00:15:09;4.07;;;1.60;;
49834;SDS011;35729;52.090;13.162;2023-08-08T00:17:37;5.68;;;1.80;;
49834;SDS011;35729;52.090;13.162;2023-08-08T00:20:07;4.10;;;1.60;;
49834;SDS011;35729;52.090;13.162;2023-08-08T00:22:39;4.13;;;2.00;;
49834;SDS011;35729;52.090;13.162;2023-08-08T00:25:08;5.30;;;1.67;;
49834;SDS011;35729;52.090;13.162;2023-08-08T00:27:36;5.80;;;2.00;;
49834;SDS011;35729;52.090;13.162;2023-08-08T00:30:09;7.15;;;2.38;;
49834;SDS011;35729;52.090;13.162;2023-08-08T00:32:39;4.50;;;2.03;;
49834;SDS011;35729;52.090;13.162;2023-08-08T00:35:08;3.67;;;1.63;;
49834;SDS011;35729;52.090;13.162;2023-08-08T00:37:39;7.80;;;2.53;;
49834;SDS011;35729;52.090;13.162;2023-08-08T00:40:08;3.50;;;1.70;;
49834;SDS011;35729;52.090;13.162;2023-08-08T00:42:36;3.97;;;1.80;;
49834;SDS011;35729;52.090;13.162;2023-08-08T00:45:05;3.83;;;1.73;;
49834;SDS011;35729;52.090;13.162;2023-08-08T00:47:35;3.13;;;1.77;;
49834;SDS011;35729;52.090;13.162;2023-08-08T00:50:04;6.38;;;2.20;;
49834;SDS011;35729;52.090;13.162;2023-08-08T00:52:33;6.30;;;1.83;;
49834;SDS011;35729;52.090;13.162;2023-08-08T00:55:12;6.80;;;2.10;;
49834;SDS011;35729;52.090;13.162;2023-08-08T00:57:42;4.00;;;2.00;;
49834;SDS011;35729;52.090;13.162;2023-08-08T01:00:11;4.07;;;1.77;;
49834;SDS011;35729;52.090;13.162;2023-08-08T01:02:40;7.03;;;2.13;;
49834;SDS011;35729;52.090;13.162;2023-08-08T01:05:08;5.75;;;2.10;;
49834;SDS011;35729;52.090;13.162;2023-08-08T01:08:03;6.22;;;1.88;;
49834;SDS011;35729;52.090;13.162;2023-08-08T01:10:37;4.70;;;2.03;;
49834;SDS011;35729;52.090;13.162;2023-08-08T01:13:08;4.05;;;2.03;;
49834;SDS011;35729;52.090;13.162;2023-08-08T01:15:44;8.55;;;2.67;;
49834;SDS011;35729;52.090;13.162;2023-08-08T01:18:20;5.15;;;1.98;;
49834;SDS011;35729;52.090;13.162;2023-08-08T01:20:49;3.38;;;1.50;;
49834;SDS011;35729;52.090;13.162;2023-08-08T01:23:23;4.47;;;1.80;;
49834;SDS011;35729;52.090;13.162;2023-08-08T01:25:59;5.28;;;1.75;;
49834;SDS011;35729;52.090;13.162;2023-08-08T01:28:28;3.10;;;1.50;;
49834;SDS011;35729;52.090;13.162;2023-08-08T01:30:57;3.33;;;1.58;;
49834;SDS011;35729;52.090;13.162;2023-08-08T01:33:25;7.25;;;2.03;;
49834;SDS011;35729;52.090;13.162;2023-08-08T01:35:54;5.72;;;2.55;;
49834;SDS011;35729;52.090;13.162;2023-08-08T01:38:29;4.35;;;1.48;;
49834;SDS011;35729;52.090;13.162;2023-08-08T01:41:04;4.65;;;1.70;;
49834;SDS011;35729;52.090;13.162;2023-08-08T01:43:33;5.65;;;1.70;;
49834;SDS011;35729;52.090;13.162;2023-08-08T01:46:05;4.70;;;1.55;;
49834;SDS011;35729;52.090;13.162;2023-08-08T01:48:34;5.00;;;1.75;;
49834;SDS011;35729;52.090;13.162;2023-08-08T01:51:03;5.68;;;1.50;;
49834;SDS011;35729;52.090;13.162;2023-08-08T01:53:31;5.80;;;2.08;;
49834;SDS011;35729;52.090;13.162;2023-08-08T01:56:03;6.28;;;1.85;;
49834;SDS011;35729;52.090;13.162;2023-08-08T01:58:31;4.45;;;1.70;;
49834;SDS011;35729;52.090;13.162;2023-08-08T02:01:00;4.88;;;1.58;;
49834;SDS011;35729;52.090;13.162;2023-08-08T02:03:28;5.57;;;1.75;;
49834;SDS011;35729;52.090;13.162;2023-08-08T02:05:57;6.15;;;1.95;;
49834;SDS011;35729;52.090;13.162;2023-08-08T02:08:25;3.20;;;1.70;;
49834;SDS011;35729;52.090;13.162;2023-08-08T02:10:54;7.95;;;2.30;;
49834;SDS011;35729;52.090;13.162;2023-08-08T02:13:25;3.45;;;1.67;;
49834;SDS011;35729;52.090;13.162;2023-08-08T02:15:53;6.30;;;2.05;;
49834;SDS011;35729;52.090;13.162;2023-08-08T02:18:21;4.88;;;1.80;;
49834;SDS011;35729;52.090;13.162;2023-08-08T02:20:50;3.92;;;1.67;;
49834;SDS011;35729;52.090;13.162;2023-08-08T02:23:18;4.38;;;1.83;;
49834;SDS011;35729;52.090;13.162;2023-08-08T02:25:47;5.35;;;1.77;;
49834;SDS011;35729;52.090;13.162;2023-08-08T02:28:15;5.93;;;2.30;;
49834;SDS011;35729;52.090;13.162;2023-08-08T02:30:46;2.88;;;1.70;;
49834;SDS011;35729;52.090;13.162;2023-08-08T02:33:15;4.20;;;1.85;;
49834;SDS011;35729;52.090;13.162;2023-08-08T02:35:43;5.45;;;1.95;;
49834;SDS011;35729;52.090;13.162;2023-08-08T02:38:12;3.83;;;1.83;;
49834;SDS011;35729;52.090;13.162;2023-08-08T02:40:40;5.68;;;1.70;;
49834;SDS011;35729;52.090;13.162;2023-08-08T02:43:08;2.53;;;1.85;;
49834;SDS011;35729;52.090;13.162;2023-08-08T02:45:37;6.75;;;1.83;;
49834;SDS011;35729;52.090;13.162;2023-08-08T02:48:08;3.08;;;1.60;;
49834;SDS011;35729;52.090;13.162;2023-08-08T02:50:37;3.40;;;1.98;;
49834;SDS011;35729;52.090;13.162;2023-08-08T02:53:05;5.35;;;2.17;;
49834;SDS011;35729;52.090;13.162;2023-08-08T02:55:35;4.57;;;2.00;;
49834;SDS011;35729;52.090;13.162;2023-08-08T02:58:04;4.00;;;1.88;;
49834;SDS011;35729;52.090;13.162;2023-08-08T03:00:32;4.25;;;1.95;;
49834;SDS011;35729;52.090;13.162;2023-08-08T03:03:01;5.75;;;2.20;;
49834;SDS011;35729;52.090;13.162;2023-08-08T03:05:32;5.40;;;1.60;;
49834;SDS011;35729;52.090;13.162;2023-08-08T03:08:01;5.75;;;2.15;;
49834;SDS011;35729;52.090;13.162;2023-08-08T03:10:29;5.50;;;2.30;;
49834;SDS011;35729;52.090;13.162;2023-08-08T03:12:55;6.22;;;2.60;;
49834;SDS011;35729;52.090;13.162;2023-08-08T03:15:23;3.63;;;1.95;;
49834;SDS011;35729;52.090;13.162;2023-08-08T03:17:52;3.17;;;2.00;;
49834;SDS011;35729;52.090;13.162;2023-08-08T03:20:20;6.32;;;2.35;;
49834;SDS011;35729;52.090;13.162;2023-08-08T03:22:51;5.80;;;2.95;;
49834;SDS011;35729;52.090;13.162;2023-08-08T03:25:20;11.57;;;5.80;;
49834;SDS011;35729;52.090;13.162;2023-08-08T03:27:48;8.07;;;3.95;;
49834;SDS011;35729;52.090;13.162;2023-08-08T03:30:17;6.60;;;3.30;;
49834;SDS011;35729;52.090;13.162;2023-08-08T03:32:45;5.55;;;2.70;;
49834;SDS011;35729;52.090;13.162;2023-08-08T03:35:14;6.97;;;3.55;;
49834;SDS011;35729;52.090;13.162;2023-08-08T03:37:42;6.88;;;3.10;;
49834;SDS011;35729;52.090;13.162;2023-08-08T03:40:13;4.22;;;3.05;;
49834;SDS011;35729;52.090;13.162;2023-08-08T03:42:42;9.18;;;3.30;;
49834;SDS011;35729;52.090;13.162;2023-08-08T03:45:11;6.30;;;2.95;;
49834;SDS011;35729;52.090;13.162;2023-08-08T03:47:39;3.22;;;2.40;;
49834;SDS011;35729;52.090;13.162;2023-08-08T03:50:08;7.43;;;3.53;;
49834;SDS011;35729;52.090;13.162;2023-08-08T03:52:37;6.75;;;2.85;;
49834;SDS011;35729;52.090;13.162;2023-08-08T03:55:06;6.70;;;3.40;;
49834;SDS011;35729;52.090;13.162;2023-08-08T03:57:37;5.50;;;2.75;;
49834;SDS011;35729;52.090;13.162;2023-08-08T04:00:06;7.78;;;3.15;;
49834;SDS011;35729;52.090;13.162;2023-08-08T04:02:36;9.77;;;3.15;;
49834;SDS011;35729;52.090;13.162;2023-08-08T04:05:05;6.68;;;3.17;;
49834;SDS011;35729;52.090;13.162;2023-08-08T04:07:34;3.85;;;2.83;;
49834;SDS011;35729;52.090;13.162;2023-08-08T04:10:03;4.20;;;2.22;;
49834;SDS011;35729;52.090;13.162;2023-08-08T04:12:32;5.70;;;3.13;;
49834;SDS011;35729;52.090;13.162;2023-08-08T04:15:03;6.45;;;3.20;;
49834;SDS011;35729;52.090;13.162;2023-08-08T04:17:32;7.85;;;3.25;;
49834;SDS011;35729;52.090;13.162;2023-08-08T04:20:01;7.07;;;3.25;;
49834;SDS011;35729;52.090;13.162;2023-08-08T04:22:31;5.20;;;2.92;;
49834;SDS011;35729;52.090;13.162;2023-08-08T04:25:00;6.47;;;3.05;;
49834;SDS011;35729;52.090;13.162;2023-08-08T04:27:29;9.20;;;3.53;;
49834;SDS011;35729;52.090;13.162;2023-08-08T04:29:57;6.45;;;3.20;;
49834;SDS011;35729;52.090;13.162;2023-08-08T04:32:28;6.95;;;3.10;;
49834;SDS011;35729;52.090;13.162;2023-08-08T04:34:57;4.80;;;3.00;;
49834;SDS011;35729;52.090;13.162;2023-08-08T04:37:25;7.53;;;2.90;;
49834;SDS011;35729;52.090;13.162;2023-08-08T04:39:54;5.28;;;2.55;;
49834;SDS011;35729;52.090;13.162;2023-08-08T04:42:22;8.02;;;2.85;;
49834;SDS011;35729;52.090;13.162;2023-08-08T04:44:51;5.00;;;2.90;;
49834;SDS011;35729;52.090;13.162;2023-08-08T04:47:19;5.22;;;2.67;;
49834;SDS011;35729;52.090;13.162;2023-08-08T04:49:50;6.00;;;2.58;;
49834;SDS011;35729;52.090;13.162;2023-08-08T04:52:19;4.78;;;2.60;;
49834;SDS011;35729;52.090;13.162;2023-08-08T04:54:47;13.00;;;3.05;;
49834;SDS011;35729;52.090;13.162;2023-08-08T04:57:16;8.63;;;2.90;;
49834;SDS011;35729;52.090;13.162;2023-08-08T04:59:44;6.47;;;2.85;;
49834;SDS011;35729;52.090;13.162;2023-08-08T05:02:12;5.88;;;3.08;;
49834;SDS011;35729;52.090;13.162;2023-08-08T05:04:41;4.93;;;2.63;;
49834;SDS011;35729;52.090;13.162;2023-08-08T05:07:12;4.13;;;2.58;;
49834;SDS011;35729;52.090;13.162;2023-08-08T05:09:41;6.15;;;2.92;;
49834;SDS011;35729;52.090;13.162;2023-08-08T05:12:09;9.68;;;2.95;;
49834;SDS011;35729;52.090;13.162;2023-08-08T05:14:37;7.05;;;2.70;;
49834;SDS011;35729;52.090;13.162;2023-08-08T05:17:06;4.80;;;2.55;;
49834;SDS011;35729;52.090;13.162;2023-08-08T05:19:34;8.27;;;3.40;;
49834;SDS011;35729;52.090;13.162;2023-08-08T05:22:03;6.65;;;2.60;;
49834;SDS011;35729;52.090;13.162;2023-08-08T05:24:34;6.70;;;2.70;;
49834;SDS011;35729;52.090;13.162;2023-08-08T05:27:03;5.03;;;2.50;;
49834;SDS011;35729;52.090;13.162;2023-08-08T05:29:32;4.47;;;2.80;;
49834;SDS011;35729;52.090;13.162;2023-08-08T05:32:03;5.93;;;2.60;;
49834;SDS011;35729;52.090;13.162;2023-08-08T05:34:32;9.63;;;2.55;;
49834;SDS011;35729;52.090;13.162;2023-08-08T05:37:01;4.45;;;2.42;;
49834;SDS011;35729;52.090;13.162;2023-08-08T05:39:29;5.30;;;2.33;;
49834;SDS011;35729;52.090;13.162;2023-08-08T05:42:01;3.92;;;2.45;;
49834;SDS011;35729;52.090;13.162;2023-08-08T05:44:29;4.85;;;2.67;;
49834;SDS011;35729;52.090;13.162;2023-08-08T05:46:58;4.32;;;2.22;;
49834;SDS011;35729;52.090;13.162;2023-08-08T05:49:26;6.03;;;2.30;;
49834;SDS011;35729;52.090;13.162;2023-08-08T05:51:54;5.93;;;1.90;;
49834;SDS011;35729;52.090;13.162;2023-08-08T05:54:23;3.15;;;1.77;;
49834;SDS011;35729;52.090;13.162;2023-08-08T05:56:53;4.13;;;2.20;;
49834;SDS011;35729;52.090;13.162;2023-08-08T05:59:24;2.38;;;1.75;;
49834;SDS011;35729;52.090;13.162;2023-08-08T06:01:52;4.22;;;2.10;;
49834;SDS011;35729;52.090;13.162;2023-08-08T06:04:21;6.07;;;1.70;;
49834;SDS011;35729;52.090;13.162;2023-08-08T06:06:49;4.63;;;2.30;;
49834;SDS011;35729;52.090;13.162;2023-08-08T06:09:18;5.57;;;1.85;;
49834;SDS011;35729;52.090;13.162;2023-08-08T06:11:47;2.53;;;2.00;;
49834;SDS011;35729;52.090;13.162;2023-08-08T06:14:16;8.68;;;2.67;;
49834;SDS011;35729;52.090;13.162;2023-08-08T06:16:47;4.93;;;2.58;;
49834;SDS011;35729;52.090;13.162;2023-08-08T06:19:15;4.57;;;2.15;;
49834;SDS011;35729;52.090;13.162;2023-08-08T06:21:44;4.38;;;2.03;;
49834;SDS011;35729;52.090;13.162;2023-08-08T06:24:12;3.15;;;2.20;;
49834;SDS011;35729;52.090;13.162;2023-08-08T06:26:40;3.70;;;2.58;;
49834;SDS011;35729;52.090;13.162;2023-08-08T06:29:09;4.72;;;2.28;;
49834;SDS011;35729;52.090;13.162;2023-08-08T06:31:39;3.15;;;1.88;;
49834;SDS011;35729;52.090;13.162;2023-08-08T06:34:10;4.38;;;2.33;;
49834;SDS011;35729;52.090;13.162;2023-08-08T06:36:38;9.68;;;2.45;;
49834;SDS011;35729;52.090;13.162;2023-08-08T06:39:08;5.97;;;2.42;;
49834;SDS011;35729;52.090;13.162;2023-08-08T06:41:36;6.93;;;2.35;;
49834;SDS011;35729;52.090;13.162;2023-08-08T06:44:04;3.17;;;2.13;;
49834;SDS011;35729;52.090;13.162;2023-08-08T06:46:35;2.53;;;2.00;;
49834;SDS011;35729;52.090;13.162;2023-08-08T06:49:03;3.47;;;2.03;;
49834;SDS011;35729;52.090;13.162;2023-08-08T06:51:34;8.02;;;2.05;;
49834;SDS011;35729;52.090;13.162;2023-08-08T06:54:03;4.00;;;2.10;;
49834;SDS011;35729;52.090;13.162;2023-08-08T06:56:33;5.50;;;2.33;;
49834;SDS011;35729;52.090;13.162;2023-08-08T06:59:01;4.60;;;1.83;;
49834;SDS011;35729;52.090;13.162;2023-08-08T07:01:35;3.00;;;1.98;;
49834;SDS011;35729;52.090;13.162;2023-08-08T07:04:04;7.15;;;2.03;;
49834;SDS011;35729;52.090;13.162;2023-08-08T07:06:35;5.88;;;1.80;;
49834;SDS011;35729;52.090;13.162;2023-08-08T07:09:03;3.92;;;1.85;;
49834;SDS011;35729;52.090;13.162;2023-08-08T07:11:35;4.10;;;1.90;;
49834;SDS011;35729;52.090;13.162;2023-08-08T07:14:04;3.75;;;1.90;;
49834;SDS011;35729;52.090;13.162;2023-08-08T07:16:32;3.95;;;2.45;;
49834;SDS011;35729;52.090;13.162;2023-08-08T07:19:07;3.13;;;2.03;;
49834;SDS011;35729;52.090;13.162;2023-08-08T07:21:39;8.85;;;2.30;;
49834;SDS011;35729;52.090;13.162;2023-08-08T07:24:07;2.28;;;1.70;;
49834;SDS011;35729;52.090;13.162;2023-08-08T07:26:37;3.42;;;1.70;;
49834;SDS011;35729;52.090;13.162;2023-08-08T07:29:05;3.22;;;1.80;;
49834;SDS011;35729;52.090;13.162;2023-08-08T07:31:33;3.85;;;1.98;;
49834;SDS011;35729;52.090;13.162;2023-08-08T07:34:02;3.75;;;1.83;;
49834;SDS011;35729;52.090;13.162;2023-08-08T07:36:30;4.93;;;1.90;;
49834;SDS011;35729;52.090;13.162;2023-08-08T07:39:01;3.75;;;1.85;;
49834;SDS011;35729;52.090;13.162;2023-08-08T07:41:30;3.40;;;2.38;;
49834;SDS011;35729;52.090;13.162;2023-08-08T07:44:00;3.08;;;1.70;;
49834;SDS011;35729;52.090;13.162;2023-08-08T07:46:28;2.55;;;1.77;;
49834;SDS011;35729;52.090;13.162;2023-08-08T07:48:57;3.00;;;2.03;;
49834;SDS011;35729;52.090;13.162;2023-08-08T07:51:28;3.63;;;1.52;;
49834;SDS011;35729;52.090;13.162;2023-08-08T07:53:57;2.40;;;1.42;;
49834;SDS011;35729;52.090;13.162;2023-08-08T07:56:29;2.20;;;1.60;;
49834;SDS011;35729;52.090;13.162;2023-08-08T07:58:57;5.32;;;1.92;;
49834;SDS011;35729;52.090;13.162;2023-08-08T08:01:26;4.90;;;1.67;;
49834;SDS011;35729;52.090;13.162;2023-08-08T08:03:55;4.30;;;1.92;;
49834;SDS011;35729;52.090;13.162;2023-08-08T08:06:24;3.08;;;1.55;;
49834;SDS011;35729;52.090;13.162;2023-08-08T08:08:52;3.55;;;1.52;;
49834;SDS011;35729;52.090;13.162;2023-08-08T08:11:21;2.13;;;1.40;;
49834;SDS011;35729;52.090;13.162;2023-08-08T08:13:52;1.55;;;1.15;;
49834;SDS011;35729;52.090;13.162;2023-08-08T08:16:20;2.72;;;1.42;;
49834;SDS011;35729;52.090;13.162;2023-08-08T08:18:49;2.53;;;1.42;;
49834;SDS011;35729;52.090;13.162;2023-08-08T08:21:17;5.22;;;2.03;;
49834;SDS011;35729;52.090;13.162;2023-08-08T08:23:46;3.85;;;1.60;;
49834;SDS011;35729;52.090;13.162;2023-08-08T08:26:14;3.22;;;1.67;;
49834;SDS011;35729;52.090;13.162;2023-08-08T08:28:43;4.60;;;1.80;;
49834;SDS011;35729;52.090;13.162;2023-08-08T08:31:14;3.53;;;1.83;;
49834;SDS011;35729;52.090;13.162;2023-08-08T08:33:42;4.53;;;1.45;;
49834;SDS011;35729;52.090;13.162;2023-08-08T08:36:11;4.10;;;1.77;;
49834;SDS011;35729;52.090;13.162;2023-08-08T08:38:40;3.30;;;1.55;;
49834;SDS011;35729;52.090;13.162;2023-08-08T08:41:09;3.40;;;1.50;;
49834;SDS011;35729;52.090;13.162;2023-08-08T08:43:42;2.58;;;1.50;;
49834;SDS011;35729;52.090;13.162;2023-08-08T08:46:14;2.53;;;1.10;;
49834;SDS011;35729;52.090;13.162;2023-08-08T08:48:47;3.40;;;1.70;;
49834;SDS011;35729;52.090;13.162;2023-08-08T08:51:16;4.18;;;1.70;;
49834;SDS011;35729;52.090;13.162;2023-08-08T08:53:46;3.35;;;1.23;;
49834;SDS011;35729;52.090;13.162;2023-08-08T08:56:14;4.60;;;1.65;;
49834;SDS011;35729;52.090;13.162;2023-08-08T08:58:43;3.22;;;1.40;;
49834;SDS011;35729;52.090;13.162;2023-08-08T09:01:14;4.70;;;1.30;;
49834;SDS011;35729;52.090;13.162;2023-08-08T09:03:44;3.90;;;1.65;;
49834;SDS011;35729;52.090;13.162;2023-08-08T09:06:13;4.32;;;1.60;;
49834;SDS011;35729;52.090;13.162;2023-08-08T09:08:44;6.80;;;1.55;;
49834;SDS011;35729;52.090;13.162;2023-08-08T09:11:13;3.20;;;1.55;;
49834;SDS011;35729;52.090;13.162;2023-08-08T09:13:41;4.03;;;2.70;;
49834;SDS011;35729;52.090;13.162;2023-08-08T09:16:10;3.75;;;1.67;;
49834;SDS011;35729;52.090;13.162;2023-08-08T09:18:42;4.85;;;1.77;;
49834;SDS011;35729;52.090;13.162;2023-08-08T09:21:10;2.97;;;1.30;;
49834;SDS011;35729;52.090;13.162;2023-08-08T09:23:40;3.65;;;1.30;;
49834;SDS011;35729;52.090;13.162;2023-08-08T09:26:09;2.28;;;1.42;;
49834;SDS011;35729;52.090;13.162;2023-08-08T09:28:38;3.60;;;1.58;;
49834;SDS011;35729;52.090;13.162;2023-08-08T09:31:07;3.30;;;1.70;;
49834;SDS011;35729;52.090;13.162;2023-08-08T09:33:38;4.25;;;1.67;;
49834;SDS011;35729;52.090;13.162;2023-08-08T09:36:09;3.83;;;1.52;;
49834;SDS011;35729;52.090;13.162;2023-08-08T09:38:41;4.45;;;1.50;;
49834;SDS011;35729;52.090;13.162;2023-08-08T09:41:10;2.50;;;1.50;;
49834;SDS011;35729;52.090;13.162;2023-08-08T09:43:39;2.20;;;1.60;;
49834;SDS011;35729;52.090;13.162;2023-08-08T09:46:08;3.45;;;1.60;;
49834;SDS011;35729;52.090;13.162;2023-08-08T09:48:36;3.03;;;1.40;;
49834;SDS011;35729;52.090;13.162;2023-08-08T09:51:10;1.73;;;1.42;;
49834;SDS011;35729;52.090;13.162;2023-08-08T09:53:38;3.60;;;1.55;;
49834;SDS011;35729;52.090;13.162;2023-08-08T09:56:09;4.00;;;1.48;;
49834;SDS011;35729;52.090;13.162;2023-08-08T09:58:38;3.38;;;1.30;;
49834;SDS011;35729;52.090;13.162;2023-08-08T10:01:07;3.33;;;1.45;;
49834;SDS011;35729;52.090;13.162;2023-08-08T10:03:37;4.13;;;1.50;;
49834;SDS011;35729;52.090;13.162;2023-08-08T10:06:10;5.10;;;1.52;;
49834;SDS011;35729;52.090;13.162;2023-08-08T10:08:39;2.65;;;1.40;;
49834;SDS011;35729;52.090;13.162;2023-08-08T10:11:08;2.15;;;1.35;;
49834;SDS011;35729;52.090;13.162;2023-08-08T10:13:46;1.55;;;1.20;;
49834;SDS011;35729;52.090;13.162;2023-08-08T10:16:16;3.33;;;1.30;;
49834;SDS011;35729;52.090;13.162;2023-08-08T10:18:45;3.78;;;1.45;;
49834;SDS011;35729;52.090;13.162;2023-08-08T10:21:25;4.45;;;1.58;;
49834;SDS011;35729;52.090;13.162;2023-08-08T10:24:00;3.13;;;1.00;;
49834;SDS011;35729;52.090;13.162;2023-08-08T10:26:30;3.55;;;1.23;;
49834;SDS011;35729;52.090;13.162;2023-08-08T10:28:59;2.20;;;1.10;;
49834;SDS011;35729;52.090;13.162;2023-08-08T10:31:32;3.70;;;1.15;;
49834;SDS011;35729;52.090;13.162;2023-08-08T10:39:21;3.28;;;1.20;;
49834;SDS011;35729;52.090;13.162;2023-08-08T10:41:50;6.57;;;1.35;;
49834;SDS011;35729;52.090;13.162;2023-08-08T10:44:22;2.38;;;1.00;;
49834;SDS011;35729;52.090;13.162;2023-08-08T10:46:51;4.95;;;1.40;;
49834;SDS011;35729;52.090;13.162;2023-08-08T10:49:21;4.30;;;2.28;;
49834;SDS011;35729;52.090;13.162;2023-08-08T10:51:49;1.90;;;1.25;;
49834;SDS011;35729;52.090;13.162;2023-08-08T10:54:22;2.92;;;1.17;;
49834;SDS011;35729;52.090;13.162;2023-08-08T10:56:54;3.28;;;1.15;;
49834;SDS011;35729;52.090;13.162;2023-08-08T10:59:26;2.88;;;1.23;;
49834;SDS011;35729;52.090;13.162;2023-08-08T11:01:56;4.30;;;1.45;;
49834;SDS011;35729;52.090;13.162;2023-08-08T11:04:24;2.70;;;1.25;;
49834;SDS011;35729;52.090;13.162;2023-08-08T11:06:57;2.17;;;1.30;;
49834;SDS011;35729;52.090;13.162;2023-08-08T11:09:26;4.43;;;1.55;;
49834;SDS011;35729;52.090;13.162;2023-08-08T11:11:55;3.38;;;1.10;;
49834;SDS011;35729;52.090;13.162;2023-08-08T11:14:23;2.33;;;1.10;;
49834;SDS011;35729;52.090;13.162;2023-08-08T11:16:52;2.80;;;1.45;;
49834;SDS011;35729;52.090;13.162;2023-08-08T11:19:21;7.43;;;1.60;;
49834;SDS011;35729;52.090;13.162;2023-08-08T11:21:50;2.15;;;1.25;;
49834;SDS011;35729;52.090;13.162;2023-08-08T11:24:21;2.00;;;1.42;;
49834;SDS011;35729;52.090;13.162;2023-08-08T11:26:50;2.30;;;1.50;;
49834;SDS011;35729;52.090;13.162;2023-08-08T11:29:26;1.98;;;1.40;;
49834;SDS011;35729;52.090;13.162;2023-08-08T11:31:56;2.20;;;1.45;;
49834;SDS011;35729;52.090;13.162;2023-08-08T11:34:24;2.90;;;1.75;;
49834;SDS011;35729;52.090;13.162;2023-08-08T11:36:53;4.28;;;2.00;;
49834;SDS011;35729;52.090;13.162;2023-08-08T11:39:26;5.13;;;2.40;;
49834;SDS011;35729;52.090;13.162;2023-08-08T11:41:55;3.58;;;2.00;;
49834;SDS011;35729;52.090;13.162;2023-08-08T11:44:26;2.55;;;1.83;;
49834;SDS011;35729;52.090;13.162;2023-08-08T11:46:55;4.43;;;2.15;;
49834;SDS011;35729;52.090;13.162;2023-08-08T11:49:27;4.18;;;2.03;;
49834;SDS011;35729;52.090;13.162;2023-08-08T11:51:56;2.80;;;2.20;;
49834;SDS011;35729;52.090;13.162;2023-08-08T11:54:30;3.55;;;1.90;;
49834;SDS011;35729;52.090;13.162;2023-08-08T11:59:28;6.80;;;2.75;;
49834;SDS011;35729;52.090;13.162;2023-08-08T12:01:58;3.22;;;2.38;;
49834;SDS011;35729;52.090;13.162;2023-08-08T12:04:27;4.13;;;2.55;;
49834;SDS011;35729;52.090;13.162;2023-08-08T12:07:02;4.30;;;2.47;;
49834;SDS011;35729;52.090;13.162;2023-08-08T12:09:33;5.38;;;2.88;;
49834;SDS011;35729;52.090;13.162;2023-08-08T12:12:02;8.88;;;2.72;;
49834;SDS011;35729;52.090;13.162;2023-08-08T12:14:36;4.63;;;2.50;;
49834;SDS011;35729;52.090;13.162;2023-08-08T12:17:05;2.83;;;2.10;;
49834;SDS011;35729;52.090;13.162;2023-08-08T12:19:33;4.57;;;2.40;;
49834;SDS011;35729;52.090;13.162;2023-08-08T12:22:02;4.20;;;1.80;;
49834;SDS011;35729;52.090;13.162;2023-08-08T12:24:31;3.17;;;1.95;;
49834;SDS011;35729;52.090;13.162;2023-08-08T12:27:02;3.53;;;1.55;;
49834;SDS011;35729;52.090;13.162;2023-08-08T12:29:31;5.95;;;2.15;;
49834;SDS011;35729;52.090;13.162;2023-08-08T12:32:00;3.22;;;1.90;;
49834;SDS011;35729;52.090;13.162;2023-08-08T12:34:32;3.80;;;1.83;;
49834;SDS011;35729;52.090;13.162;2023-08-08T12:37:01;4.10;;;2.42;;
49834;SDS011;35729;52.090;13.162;2023-08-08T12:39:30;5.05;;;2.20;;
49834;SDS011;35729;52.090;13.162;2023-08-08T12:42:07;3.20;;;1.90;;
49834;SDS011;35729;52.090;13.162;2023-08-08T12:44:36;3.45;;;2.10;;
49834;SDS011;35729;52.090;13.162;2023-08-08T12:47:05;2.90;;;2.00;;
49834;SDS011;35729;52.090;13.162;2023-08-08T12:49:34;3.83;;;2.17;;
49834;SDS011;35729;52.090;13.162;2023-08-08T12:52:02;3.35;;;1.80;;
49834;SDS011;35729;52.090;13.162;2023-08-08T12:54:31;9.52;;;2.67;;
49834;SDS011;35729;52.090;13.162;2023-08-08T12:57:01;2.25;;;2.05;;
49834;SDS011;35729;52.090;13.162;2023-08-08T12:59:32;3.47;;;2.47;;
49834;SDS011;35729;52.090;13.162;2023-08-08T13:02:00;9.50;;;4.70;;
49834;SDS011;35729;52.090;13.162;2023-08-08T13:04:29;13.60;;;4.90;;
49834;SDS011;35729;52.090;13.162;2023-08-08T13:06:57;9.93;;;4.63;;
49834;SDS011;35729;52.090;13.162;2023-08-08T13:09:25;9.27;;;3.70;;
49834;SDS011;35729;52.090;13.162;2023-08-08T13:11:54;6.28;;;3.08;;
49834;SDS011;35729;52.090;13.162;2023-08-08T13:14:22;8.18;;;3.28;;
49834;SDS011;35729;52.090;13.162;2023-08-08T13:16:54;6.10;;;3.50;;
49834;SDS011;35729;52.090;13.162;2023-08-08T13:19:29;5.05;;;3.30;;
49834;SDS011;35729;52.090;13.162;2023-08-08T13:21:58;5.38;;;2.65;;
49834;SDS011;35729;52.090;13.162;2023-08-08T13:24:26;8.07;;;2.63;;
49834;SDS011;35729;52.090;13.162;2023-08-08T13:26:54;4.63;;;2.25;;
49834;SDS011;35729;52.090;13.162;2023-08-08T13:29:23;3.75;;;1.95;;
49834;SDS011;35729;52.090;13.162;2023-08-08T13:31:54;2.92;;;2.17;;
49834;SDS011;35729;52.090;13.162;2023-08-08T13:34:23;3.25;;;1.90;;
49834;SDS011;35729;52.090;13.162;2023-08-08T13:36:51;2.88;;;1.83;;
49834;SDS011;35729;52.090;13.162;2023-08-08T13:39:20;3.03;;;2.00;;
49834;SDS011;35729;52.090;13.162;2023-08-08T13:41:48;2.58;;;1.58;;
49834;SDS011;35729;52.090;13.162;2023-08-08T13:44:16;2.00;;;1.50;;
49834;SDS011;35729;52.090;13.162;2023-08-08T13:46:45;5.57;;;2.47;;
49834;SDS011;35729;52.090;13.162;2023-08-08T13:49:16;2.38;;;1.83;;
49834;SDS011;35729;52.090;13.162;2023-08-08T13:51:44;3.47;;;1.90;;
49834;SDS011;35729;52.090;13.162;2023-08-08T13:54:13;4.03;;;1.60;;
49834;SDS011;35729;52.090;13.162;2023-08-08T13:56:41;2.88;;;1.85;;
49834;SDS011;35729;52.090;13.162;2023-08-08T13:59:10;3.72;;;2.17;;
49834;SDS011;35729;52.090;13.162;2023-08-08T14:01:39;3.10;;;2.20;;
49834;SDS011;35729;52.090;13.162;2023-08-08T14:04:07;3.88;;;2.17;;
49834;SDS011;35729;52.090;13.162;2023-08-08T14:06:38;1.92;;;1.50;;
49834;SDS011;35729;52.090;13.162;2023-08-08T14:09:07;3.70;;;1.88;;
49834;SDS011;35729;52.090;13.162;2023-08-08T14:11:36;4.07;;;1.98;;
49834;SDS011;35729;52.090;13.162;2023-08-08T14:14:04;4.53;;;2.10;;
49834;SDS011;35729;52.090;13.162;2023-08-08T14:16:33;3.33;;;1.80;;
49834;SDS011;35729;52.090;13.162;2023-08-08T14:19:01;5.88;;;2.08;;
49834;SDS011;35729;52.090;13.162;2023-08-08T14:21:30;4.55;;;2.17;;
49834;SDS011;35729;52.090;13.162;2023-08-08T14:24:01;3.78;;;1.98;;
49834;SDS011;35729;52.090;13.162;2023-08-08T14:26:29;2.88;;;1.65;;
49834;SDS011;35729;52.090;13.162;2023-08-08T14:28:58;2.03;;;1.30;;
49834;SDS011;35729;52.090;13.162;2023-08-08T14:31:26;3.38;;;1.48;;
49834;SDS011;35729;52.090;13.162;2023-08-08T14:33:55;2.47;;;1.80;;
49834;SDS011;35729;52.090;13.162;2023-08-08T14:36:23;3.85;;;2.58;;
49834;SDS011;35729;52.090;13.162;2023-08-08T14:38:51;2.22;;;1.55;;
49834;SDS011;35729;52.090;13.162;2023-08-08T14:41:23;2.05;;;1.10;;
49834;SDS011;35729;52.090;13.162;2023-08-08T14:43:51;4.18;;;1.50;;
49834;SDS011;35729;52.090;13.162;2023-08-08T14:46:20;1.75;;;1.65;;
49834;SDS011;35729;52.090;13.162;2023-08-08T14:48:48;4.03;;;1.63;;
49834;SDS011;35729;52.090;13.162;2023-08-08T14:51:16;3.65;;;2.15;;
49834;SDS011;35729;52.090;13.162;2023-08-08T14:53:45;7.18;;;2.47;;